createdAt,value
2017-07-24T00:00:00.274Z,64.00
2017-07-24T00:02:28.111Z,63.90
2017-07-24T00:04:56.392Z,63.20
2017-07-24T00:07:24.178Z,63.40
2017-07-24T00:09:53.680Z,63.80
2017-07-24T00:12:22.288Z,63.50
2017-07-24T00:14:50.656Z,63.70
2017-07-24T00:17:20.976Z,63.90
2017-07-24T00:19:49.448Z,64.00
2017-07-24T00:22:16.942Z,63.50
2017-07-24T00:24:44.418Z,63.00
2017-07-24T00:27:11.910Z,63.20
2017-07-24T00:29:39.423Z,63.70
2017-07-24T00:32:07.709Z,63.70
2017-07-24T00:34:35.321Z,63.50
2017-07-24T00:37:02.879Z,63.90
2017-07-24T00:39:31.536Z,63.30
2017-07-24T00:41:59.116Z,63.60
2017-07-24T00:44:27.547Z,64.10
2017-07-24T00:46:55.230Z,64.50
2017-07-24T00:49:23.202Z,64.30
2017-07-24T00:51:50.817Z,64.70
2017-07-24T00:54:18.309Z,64.50
2017-07-24T00:56:45.869Z,64.40
2017-07-24T00:59:14.239Z,64.20
2017-07-24T01:01:41.712Z,64.20
2017-07-24T01:04:09.212Z,64.40
2017-07-24T01:06:36.987Z,64.40
2017-07-24T01:09:04.604Z,64.60
2017-07-24T01:11:32.146Z,64.10
2017-07-24T01:13:59.659Z,64.50
2017-07-24T01:16:27.275Z,64.40
2017-07-24T01:18:54.755Z,64.90
2017-07-24T01:21:22.288Z,64.60
2017-07-24T01:23:50.555Z,64.70
2017-07-24T01:26:18.010Z,64.70
2017-07-24T01:28:46.232Z,65.30
2017-07-24T01:31:13.958Z,65.30
2017-07-24T01:33:41.418Z,65.60
2017-07-24T01:36:08.925Z,65.60
2017-07-24T01:38:36.519Z,65.50
2017-07-24T01:41:03.995Z,65.40
2017-07-24T01:43:31.467Z,65.50
2017-07-24T01:45:59.076Z,65.80
2017-07-24T01:48:26.664Z,66.10
2017-07-24T01:50:54.146Z,66.30
2017-07-24T01:53:21.691Z,66.40
2017-07-24T01:55:49.182Z,66.60
2017-07-24T01:58:16.665Z,66.70
2017-07-24T02:00:44.266Z,66.00
2017-07-24T02:03:16.814Z,65.70
2017-07-24T02:05:44.268Z,65.80
2017-07-24T02:08:11.736Z,66.00
2017-07-24T02:10:39.249Z,66.10
2017-07-24T02:13:07.383Z,66.30
2017-07-24T02:15:35.644Z,66.50
2017-07-24T02:18:03.187Z,66.50
2017-07-24T02:20:30.863Z,66.30
2017-07-24T02:22:59.127Z,66.70
2017-07-24T02:25:26.772Z,67.00
2017-07-24T02:27:54.264Z,67.20
2017-07-24T02:30:22.662Z,67.20
2017-07-24T02:32:51.617Z,67.70
2017-07-24T02:35:19.973Z,67.50
2017-07-24T02:37:48.250Z,68.30
2017-07-24T02:40:15.699Z,67.60
2017-07-24T02:42:43.314Z,67.20
2017-07-24T02:45:10.796Z,67.50
2017-07-24T02:47:38.302Z,67.70
2017-07-24T02:50:05.761Z,68.10
2017-07-24T02:52:33.338Z,68.60
2017-07-24T02:55:00.849Z,69.60
2017-07-24T02:57:28.465Z,70.50
2017-07-24T02:59:55.971Z,71.00
2017-07-24T03:02:23.486Z,70.00
2017-07-24T03:04:51.847Z,72.80
2017-07-24T03:07:25.141Z,71.90
2017-07-24T03:09:53.256Z,71.30
2017-07-24T03:12:20.746Z,71.60
2017-07-24T03:14:48.235Z,72.80
2017-07-24T03:17:15.699Z,73.30
2017-07-24T03:19:43.150Z,72.80
2017-07-24T03:22:10.596Z,72.80
2017-07-24T03:24:38.164Z,74.90
2017-07-24T03:27:05.635Z,75.90
2017-07-24T03:29:33.074Z,76.60
2017-07-24T03:32:00.540Z,76.60
2017-07-24T03:34:28.588Z,76.30
2017-07-24T03:36:56.084Z,77.10
2017-07-24T03:39:23.559Z,77.40
2017-07-24T03:41:51.052Z,77.40
2017-07-24T03:44:18.519Z,78.60
2017-07-24T03:46:46.088Z,77.80
2017-07-24T03:49:13.551Z,77.40
2017-07-24T03:51:41.032Z,77.30
2017-07-24T03:54:09.261Z,78.30
2017-07-24T03:56:36.710Z,78.20
2017-07-24T03:59:04.182Z,78.00
2017-07-24T04:01:31.659Z,79.30
2017-07-24T04:03:59.114Z,79.90
2017-07-24T04:06:26.954Z,80.50
2017-07-24T04:08:54.591Z,80.70
2017-07-24T04:11:22.204Z,80.30
2017-07-24T04:13:50.966Z,80.00
2017-07-24T04:16:18.457Z,81.90
2017-07-24T04:18:48.663Z,80.50
2017-07-24T04:21:16.985Z,81.50
2017-07-24T04:23:44.543Z,80.80
2017-07-24T04:26:11.992Z,81.10
2017-07-24T04:28:40.680Z,81.20
2017-07-24T04:31:09.164Z,81.10
2017-07-24T04:33:36.683Z,81.50
2017-07-24T04:36:05.377Z,80.90
2017-07-24T04:38:33.800Z,81.00
2017-07-24T04:41:01.364Z,81.70
2017-07-24T04:43:28.894Z,81.50
2017-07-24T04:45:56.838Z,82.10
2017-07-24T04:48:25.183Z,81.30
2017-07-24T04:50:52.637Z,81.70
2017-07-24T04:53:21.054Z,83.50
2017-07-24T04:55:48.531Z,82.50
2017-07-24T04:58:17.044Z,82.00
2017-07-24T05:00:44.518Z,81.60
2017-07-24T05:03:11.958Z,81.40
2017-07-24T05:05:39.443Z,81.40
2017-07-24T05:08:07.740Z,81.80
2017-07-24T05:10:35.203Z,82.50
2017-07-24T05:13:02.706Z,82.60
2017-07-24T05:15:30.296Z,83.80
2017-07-24T05:17:57.766Z,84.20
2017-07-24T05:20:25.210Z,82.70
2017-07-24T05:22:52.875Z,83.20
2017-07-24T05:25:20.599Z,82.70
2017-07-24T05:27:50.023Z,83.00
2017-07-24T05:30:17.531Z,82.90
2017-07-24T05:32:45.034Z,82.80
2017-07-24T05:35:12.717Z,82.80
2017-07-24T05:37:40.279Z,83.10
2017-07-24T05:40:09.696Z,84.00
2017-07-24T05:42:37.537Z,84.30
2017-07-24T05:45:05.109Z,84.40
2017-07-24T05:47:32.778Z,85.70
2017-07-24T05:50:00.254Z,83.90
2017-07-24T05:52:27.842Z,83.20
2017-07-24T05:54:55.496Z,84.20
2017-07-24T05:57:23.783Z,84.60
2017-07-24T05:59:52.275Z,83.70
2017-07-24T06:02:19.772Z,85.10
2017-07-24T06:04:47.223Z,84.70
2017-07-24T06:07:14.766Z,83.30
2017-07-24T06:09:42.437Z,83.10
2017-07-24T06:12:09.912Z,83.40
2017-07-24T06:14:37.371Z,83.50
2017-07-24T06:17:04.838Z,82.70
2017-07-24T06:19:32.448Z,82.30
2017-07-24T06:22:00.198Z,81.50
2017-07-24T06:24:27.986Z,81.40
2017-07-24T06:26:55.772Z,82.40
2017-07-24T06:29:23.246Z,81.60
2017-07-24T06:31:51.162Z,81.70
2017-07-24T06:34:18.705Z,82.30
2017-07-24T06:36:46.231Z,82.00
2017-07-24T06:39:13.772Z,82.90
2017-07-24T06:41:41.265Z,83.60
2017-07-24T06:44:09.522Z,82.30
2017-07-24T06:46:38.245Z,83.20
2017-07-24T06:49:06.223Z,82.00
2017-07-24T06:51:34.724Z,81.70
2017-07-24T06:54:02.206Z,82.00
2017-07-24T06:56:31.759Z,81.50
2017-07-24T06:58:59.378Z,81.60
2017-07-24T07:01:26.828Z,80.50
2017-07-24T07:03:54.284Z,80.90
2017-07-24T07:06:21.857Z,82.70
2017-07-24T07:08:49.419Z,82.30
2017-07-24T07:11:23.386Z,82.20
2017-07-24T07:14:15.884Z,82.00
2017-07-24T07:16:43.337Z,81.50
2017-07-24T07:19:12.949Z,81.50
2017-07-24T07:24:16.855Z,81.30
2017-07-24T07:26:44.416Z,80.90
2017-07-24T07:29:11.985Z,81.20
2017-07-24T07:31:39.569Z,81.60
2017-07-24T07:34:07.095Z,81.60
2017-07-24T07:36:34.606Z,80.60
2017-07-24T07:39:02.151Z,79.80
2017-07-24T07:41:30.801Z,81.00
2017-07-24T07:43:58.633Z,81.00
2017-07-24T07:46:26.556Z,80.60
2017-07-24T07:48:54.111Z,81.50
2017-07-24T07:51:21.873Z,81.20
2017-07-24T07:53:49.330Z,79.60
2017-07-24T07:56:16.878Z,80.70
2017-07-24T07:58:45.083Z,80.60
2017-07-24T08:01:12.648Z,81.60
2017-07-24T08:03:40.979Z,80.30
2017-07-24T08:06:08.758Z,80.30
2017-07-24T08:08:36.321Z,80.90
2017-07-24T08:11:04.644Z,80.20
2017-07-24T08:13:32.197Z,81.80
2017-07-24T08:15:59.816Z,79.20
2017-07-24T08:18:27.419Z,79.30
2017-07-24T08:20:57.068Z,80.20
2017-07-24T08:23:24.572Z,79.00
2017-07-24T08:25:52.194Z,78.40
2017-07-24T08:28:19.954Z,78.10
2017-07-24T08:30:47.540Z,77.40
2017-07-24T08:33:15.208Z,77.40
2017-07-24T08:35:42.657Z,76.50
2017-07-24T08:38:10.319Z,76.60
2017-07-24T08:40:37.819Z,76.20
2017-07-24T08:43:05.695Z,77.10
2017-07-24T08:45:33.332Z,76.90
2017-07-24T08:48:01.688Z,77.20
2017-07-24T08:50:30.175Z,77.20
2017-07-24T08:52:58.891Z,77.00
2017-07-24T08:55:35.048Z,75.20
2017-07-24T08:58:03.816Z,75.10
2017-07-24T09:00:35.417Z,74.30
2017-07-24T09:03:03.027Z,75.60
2017-07-24T09:05:33.661Z,76.00
2017-07-24T09:08:02.063Z,74.90
2017-07-24T09:10:30.533Z,74.70
2017-07-24T09:13:05.338Z,76.00
2017-07-24T09:15:33.036Z,75.60
2017-07-24T09:18:03.639Z,74.00
2017-07-24T09:20:31.310Z,73.30
2017-07-24T09:22:59.127Z,72.60
2017-07-24T09:25:38.768Z,73.80
2017-07-24T09:28:06.774Z,74.50
2017-07-24T09:30:34.840Z,73.60
2017-07-24T09:33:04.734Z,72.80
2017-07-24T09:35:33.677Z,70.80
2017-07-24T09:38:01.226Z,70.30
2017-07-24T09:40:28.818Z,68.50
2017-07-24T09:42:59.276Z,69.40
2017-07-24T09:45:27.793Z,67.80
2017-07-24T09:47:55.567Z,67.80
2017-07-24T09:50:23.109Z,67.60
2017-07-24T09:52:56.299Z,64.90
2017-07-24T09:55:24.489Z,66.20
2017-07-24T09:57:54.170Z,62.20
2017-07-24T10:00:23.314Z,62.30
2017-07-24T10:02:51.670Z,59.10
2017-07-24T10:05:24.342Z,58.70
2017-07-24T10:07:52.893Z,58.10
2017-07-24T10:10:23.664Z,58.00
2017-07-24T10:13:00.046Z,60.70
2017-07-24T10:15:27.627Z,59.40
2017-07-24T10:17:56.845Z,59.40
2017-07-24T10:20:26.412Z,58.40
2017-07-24T10:22:57.431Z,61.00
2017-07-24T10:25:25.043Z,61.00
2017-07-24T10:27:52.557Z,61.20
2017-07-24T10:30:20.123Z,61.60
2017-07-24T10:32:47.703Z,60.80
2017-07-24T10:35:19.160Z,61.80
2017-07-24T10:37:49.441Z,60.00
2017-07-24T10:40:17.740Z,61.10
2017-07-24T10:42:45.334Z,59.70
2017-07-24T10:45:12.921Z,58.10
2017-07-24T10:47:40.384Z,59.80
2017-07-24T10:50:08.660Z,62.00
2017-07-24T10:52:36.223Z,62.00
2017-07-24T10:55:03.870Z,60.40
2017-07-24T10:57:31.433Z,61.60
2017-07-24T10:59:59.117Z,61.60
2017-07-24T11:02:26.660Z,61.30
2017-07-24T11:04:55.786Z,59.90
2017-07-24T11:07:23.310Z,59.90
2017-07-24T11:09:50.892Z,59.60
2017-07-24T11:12:18.386Z,58.40
2017-07-24T11:14:45.981Z,57.30
2017-07-24T11:17:13.550Z,59.80
2017-07-24T11:19:41.231Z,59.30
2017-07-24T11:22:12.555Z,59.90
2017-07-24T11:24:41.234Z,58.80
2017-07-24T11:27:08.774Z,56.50
2017-07-24T11:29:36.308Z,57.80
2017-07-24T11:32:03.932Z,56.00
2017-07-24T11:34:31.503Z,55.90
2017-07-24T11:36:59.248Z,55.80
2017-07-24T11:39:28.073Z,55.20
2017-07-24T11:41:56.617Z,55.40
2017-07-24T11:44:30.888Z,57.70
2017-07-24T11:47:10.162Z,59.90
2017-07-24T11:49:38.670Z,59.70
2017-07-24T11:52:16.442Z,59.70
2017-07-24T11:54:44.014Z,59.00
2017-07-24T11:57:13.459Z,59.80
2017-07-24T11:59:44.770Z,60.30
2017-07-24T12:02:22.830Z,60.00
2017-07-24T12:04:57.254Z,58.90
2017-07-24T12:07:25.683Z,59.90
2017-07-24T12:09:53.484Z,60.30
2017-07-24T12:12:22.101Z,60.80
2017-07-24T12:14:50.168Z,61.70
2017-07-24T12:17:18.000Z,62.20
2017-07-24T12:22:23.111Z,64.10
2017-07-24T12:24:51.384Z,65.50
2017-07-24T12:27:22.855Z,66.20
2017-07-24T12:29:50.436Z,68.00
2017-07-24T12:32:18.611Z,68.20
2017-07-24T12:34:52.347Z,68.40
2017-07-24T12:37:34.190Z,70.70
2017-07-24T12:40:04.615Z,72.00
2017-07-24T12:42:46.673Z,73.30
2017-07-24T12:45:17.020Z,74.80
2017-07-24T12:47:46.541Z,75.60
2017-07-24T12:50:18.003Z,77.50
2017-07-24T12:52:45.557Z,78.80
2017-07-24T12:55:13.885Z,78.90
2017-07-24T13:00:22.335Z,80.30
2017-07-24T13:02:54.934Z,80.60
2017-07-24T13:05:41.819Z,82.60
2017-07-24T13:08:12.449Z,81.40
2017-07-24T13:10:40.898Z,80.30
2017-07-24T13:13:09.146Z,78.80
2017-07-24T13:15:36.760Z,80.40
2017-07-24T13:18:09.480Z,74.50
2017-07-24T13:20:42.353Z,76.90
2017-07-24T13:23:11.317Z,77.60
2017-07-24T13:25:38.876Z,76.20
2017-07-24T13:28:09.130Z,72.50
2017-07-24T13:30:37.310Z,73.80
2017-07-24T13:33:06.331Z,74.70
2017-07-24T13:35:35.893Z,71.90
2017-07-24T13:38:16.242Z,71.40
2017-07-24T13:40:44.735Z,69.80
2017-07-24T13:43:15.090Z,70.60
2017-07-24T13:45:43.029Z,69.90
2017-07-24T13:48:11.923Z,71.80
2017-07-24T13:50:41.742Z,67.50
2017-07-24T13:53:19.744Z,65.90
2017-07-24T13:55:52.662Z,65.50
2017-07-24T14:01:06.067Z,65.10
2017-07-24T14:03:37.671Z,64.10
2017-07-24T14:06:06.291Z,64.90
2017-07-24T14:08:34.884Z,63.50
2017-07-24T14:11:05.489Z,63.20
2017-07-24T14:13:34.217Z,63.70
2017-07-24T14:16:11.717Z,64.10
2017-07-24T14:18:40.047Z,60.20
2017-07-24T14:23:49.306Z,59.10
2017-07-24T14:26:17.526Z,59.50
2017-07-24T14:28:45.831Z,59.00
2017-07-24T14:31:14.307Z,56.00
2017-07-24T14:36:19.473Z,57.10
2017-07-24T14:38:58.076Z,56.30
2017-07-24T14:41:34.968Z,57.20
2017-07-24T14:46:55.361Z,55.70
2017-07-24T14:52:11.275Z,59.70
2017-07-24T14:54:41.192Z,61.30
2017-07-24T14:57:10.244Z,61.30
2017-07-24T14:59:44.093Z,61.50
2017-07-24T15:02:12.724Z,62.50
2017-07-24T15:04:44.369Z,64.10
2017-07-24T15:07:12.681Z,64.20
2017-07-24T15:09:44.126Z,65.00
2017-07-24T15:12:17.619Z,64.50
2017-07-24T15:14:49.421Z,63.00
2017-07-24T15:17:20.440Z,65.70
2017-07-24T15:19:50.334Z,66.40
2017-07-24T15:22:28.598Z,67.30
2017-07-24T15:24:56.891Z,69.20
2017-07-24T15:27:25.313Z,70.20
2017-07-24T15:29:53.692Z,70.30
2017-07-24T15:32:21.555Z,72.00
2017-07-24T15:37:38.631Z,75.10
2017-07-24T15:40:10.087Z,76.90
2017-07-24T15:42:40.101Z,76.20
2017-07-24T15:47:49.206Z,77.20
2017-07-24T15:50:17.130Z,77.10
2017-07-24T15:52:45.487Z,76.30
2017-07-24T15:55:16.393Z,76.30
2017-07-24T15:57:46.640Z,76.10
2017-07-24T16:03:03.042Z,75.50
2017-07-24T16:05:30.530Z,72.60
2017-07-24T16:08:00.875Z,72.50
2017-07-24T16:10:31.789Z,72.50
2017-07-24T16:13:00.496Z,73.10
2017-07-24T16:15:30.884Z,72.70
2017-07-24T16:18:01.896Z,71.60
2017-07-24T16:20:32.718Z,71.60
2017-07-24T16:23:02.066Z,70.60
2017-07-24T16:25:29.700Z,69.90
2017-07-24T16:27:57.698Z,68.50
2017-07-24T16:30:32.875Z,67.90
2017-07-24T16:33:04.782Z,67.90
2017-07-24T16:35:33.501Z,68.60
2017-07-24T16:38:04.309Z,69.20
2017-07-24T16:40:32.876Z,68.10
2017-07-24T16:43:00.770Z,67.90
2017-07-24T16:45:28.562Z,68.50
2017-07-24T16:47:56.220Z,68.20
2017-07-24T16:50:23.875Z,67.40
2017-07-24T16:53:06.576Z,67.00
2017-07-24T16:55:34.213Z,66.10
2017-07-24T16:58:01.740Z,67.60
2017-07-24T17:00:30.152Z,68.40
2017-07-24T17:02:58.291Z,67.40
2017-07-24T17:05:26.673Z,68.50
2017-07-24T17:07:54.229Z,66.60
2017-07-24T17:10:23.264Z,67.10
2017-07-24T17:13:00.717Z,68.20
2017-07-24T17:15:32.440Z,68.60
2017-07-24T17:18:08.607Z,68.60
2017-07-24T17:20:36.450Z,69.30
2017-07-24T17:23:05.194Z,69.80
2017-07-24T17:25:32.908Z,69.10
2017-07-24T17:28:04.310Z,68.70
2017-07-24T17:30:39.933Z,69.00
2017-07-24T17:33:07.684Z,69.00
2017-07-24T17:35:43.323Z,69.40
2017-07-24T17:38:10.828Z,70.00
2017-07-24T17:40:38.583Z,70.10
2017-07-24T17:43:07.172Z,70.30
2017-07-24T17:45:34.921Z,70.40
2017-07-24T17:48:04.135Z,70.90
2017-07-24T17:50:34.517Z,70.90
2017-07-24T17:53:03.358Z,71.20
2017-07-24T17:55:30.912Z,72.20
2017-07-24T17:58:00.521Z,71.20
2017-07-24T18:00:29.311Z,71.10
2017-07-24T18:02:57.865Z,71.50
2017-07-24T18:05:32.265Z,72.80
2017-07-24T18:08:01.472Z,73.90
2017-07-24T18:10:32.820Z,73.80
2017-07-24T18:13:00.452Z,73.90
2017-07-24T18:15:28.103Z,74.60
2017-07-24T18:17:58.563Z,75.00
2017-07-24T18:20:33.576Z,74.70
2017-07-24T18:23:03.148Z,74.70
2017-07-24T18:25:32.449Z,74.80
2017-07-24T18:28:07.853Z,74.30
2017-07-24T18:30:36.051Z,72.30
2017-07-24T18:33:03.704Z,73.10
2017-07-24T18:35:31.368Z,73.40
2017-07-24T18:37:59.769Z,74.30
2017-07-24T18:40:30.105Z,73.10
2017-07-24T18:42:58.624Z,73.00
2017-07-24T18:45:28.232Z,74.20
2017-07-24T18:48:05.629Z,75.70
2017-07-24T18:50:34.689Z,75.30
2017-07-24T18:53:03.680Z,75.30
2017-07-24T18:55:31.369Z,76.80
2017-07-24T18:57:59.438Z,75.70
2017-07-24T19:00:37.659Z,75.20
2017-07-24T19:03:05.303Z,75.10
2017-07-24T19:05:34.108Z,76.00
2017-07-24T19:08:01.808Z,75.80
2017-07-24T19:10:29.551Z,75.80
2017-07-24T19:12:58.880Z,77.00
2017-07-24T19:15:27.121Z,77.50
2017-07-24T19:17:55.383Z,78.40
2017-07-24T19:20:27.553Z,78.20
2017-07-24T19:25:30.286Z,77.60
2017-07-24T19:27:58.935Z,78.00
2017-07-24T19:30:26.600Z,78.00
2017-07-24T19:33:01.593Z,78.20
2017-07-24T19:35:34.831Z,78.10
2017-07-24T19:38:07.408Z,78.30
2017-07-24T19:46:01.568Z,80.60
2017-07-24T19:48:30.644Z,81.50
2017-07-24T19:51:16.642Z,82.20
2017-07-24T19:56:26.720Z,82.70
2017-07-24T19:58:57.443Z,81.80
2017-07-24T20:01:26.260Z,81.70
2017-07-24T20:03:53.914Z,81.60
2017-07-24T20:06:26.257Z,81.00
2017-07-24T20:11:36.015Z,80.60
2017-07-24T20:14:06.532Z,81.20
2017-07-24T20:16:34.226Z,81.20
2017-07-24T20:24:47.293Z,80.00
2017-07-24T20:27:15.049Z,80.00
2017-07-24T20:29:43.582Z,79.30
2017-07-24T20:32:11.121Z,78.60
2017-07-24T20:34:44.573Z,76.90
2017-07-24T20:37:15.819Z,77.90
2017-07-24T20:39:43.407Z,78.30
2017-07-24T20:42:13.041Z,78.90
2017-07-24T20:44:42.825Z,79.20
2017-07-24T20:47:12.667Z,78.70
2017-07-24T20:49:41.051Z,78.70
2017-07-24T20:52:11.080Z,79.40
2017-07-24T20:54:38.682Z,80.30
2017-07-24T20:57:17.401Z,80.60
2017-07-24T20:59:50.792Z,80.30
2017-07-24T21:02:32.061Z,80.60
2017-07-24T21:05:06.435Z,80.40
2017-07-24T21:07:42.840Z,80.70
2017-07-24T21:10:12.191Z,80.00
2017-07-24T21:15:29.451Z,80.60
2017-07-24T21:18:03.014Z,80.80
2017-07-24T21:20:32.519Z,81.00
2017-07-24T21:26:00.640Z,81.90
2017-07-24T21:28:29.064Z,81.80
2017-07-24T21:31:15.402Z,82.00
2017-07-24T21:33:45.731Z,82.60
2017-07-24T21:39:07.680Z,82.90
2017-07-24T21:44:37.903Z,82.80
2017-07-24T21:47:12.998Z,83.20
2017-07-24T21:49:43.455Z,83.20
2017-07-24T21:52:12.241Z,83.50
2017-07-24T21:54:41.684Z,83.40
2017-07-24T21:57:09.747Z,84.20
2017-07-24T21:59:40.127Z,84.00
2017-07-24T22:02:11.305Z,83.90
2017-07-24T22:04:40.392Z,84.10
2017-07-24T22:07:09.288Z,84.10
2017-07-24T22:09:36.900Z,83.80
2017-07-24T22:12:05.743Z,83.80
2017-07-24T22:14:33.282Z,83.70
2017-07-24T22:17:00.893Z,83.90
2017-07-24T22:19:28.539Z,83.90
2017-07-24T22:21:56.771Z,83.90
2017-07-24T22:24:24.268Z,83.90
2017-07-24T22:26:51.875Z,84.40
2017-07-24T22:29:19.449Z,84.30
2017-07-24T22:31:47.395Z,84.50
2017-07-24T22:34:17.104Z,83.90
2017-07-24T22:36:44.618Z,83.60
2017-07-24T22:39:12.930Z,83.70
2017-07-24T22:41:40.839Z,83.60
2017-07-24T22:44:08.334Z,83.90
2017-07-24T22:46:37.416Z,84.70
2017-07-24T22:49:05.792Z,84.70
2017-07-24T22:51:34.080Z,84.20
2017-07-24T22:54:01.871Z,84.10
2017-07-24T22:56:29.472Z,84.20
2017-07-24T22:58:58.350Z,84.30
2017-07-24T23:01:25.951Z,84.00
2017-07-24T23:03:55.624Z,84.50
2017-07-24T23:06:24.980Z,84.60
2017-07-24T23:08:55.380Z,84.20
2017-07-24T23:11:22.879Z,84.00
2017-07-24T23:16:28.289Z,84.30
2017-07-24T23:18:56.004Z,84.90
2017-07-24T23:21:23.774Z,84.30
2017-07-24T23:23:51.391Z,83.70
2017-07-24T23:26:19.665Z,84.40
2017-07-24T23:28:47.123Z,84.30
2017-07-24T23:31:15.394Z,84.60
2017-07-24T23:33:42.975Z,84.60
2017-07-24T23:36:10.544Z,85.20
2017-07-24T23:38:37.991Z,85.40
2017-07-24T23:41:05.645Z,84.70
2017-07-24T23:43:35.947Z,85.00
2017-07-24T23:46:03.388Z,84.70
2017-07-24T23:48:31.058Z,84.80
2017-07-24T23:50:59.500Z,84.70
2017-07-24T23:53:28.293Z,84.70
2017-07-24T23:55:57.305Z,84.70
2017-07-24T23:58:25.935Z,84.80
